Aviation Digital Data Service (ADDS)

Output produced by TAFs form (1701 UTC 17 October 2017)
found at http://aviationweather.gov/adds/tafs/
 
KVEL 171127Z 1712/1812 26003KT P6SM FEW250 
     FM171500 VRB03KT P6SM FEW250 
     FM172000 27005KT P6SM FEW250 
     FM180100 28004KT P6SM FEW250